createdAt,value
2019-04-25T00:00:33.336Z,73.97
2019-04-25T00:01:33.320Z,74.26
2019-04-25T00:02:33.289Z,73.97
2019-04-25T00:03:33.267Z,74.44
2019-04-25T00:04:33.239Z,74.16
2019-04-25T00:05:33.220Z,74.63
2019-04-25T00:06:33.195Z,74.63
2019-04-25T00:07:33.168Z,74.82
2019-04-25T00:08:33.146Z,75.02
2019-04-25T00:09:33.131Z,74.82
2019-04-25T00:10:33.101Z,75.30
2019-04-25T00:11:33.073Z,74.92
2019-04-25T00:12:33.048Z,74.82
2019-04-25T00:13:33.029Z,74.26
2019-04-25T00:14:33.005Z,74.26
2019-04-25T00:15:32.982Z,74.63
2019-04-25T00:16:32.957Z,74.92
2019-04-25T00:17:32.937Z,75.30
2019-04-25T00:18:32.908Z,75.59
2019-04-25T00:19:32.902Z,75.30
2019-04-25T00:20:32.859Z,75.49
2019-04-25T00:21:33.897Z,75.87
2019-04-25T00:22:32.817Z,75.87
2019-04-25T00:23:32.793Z,76.21
2019-04-25T00:24:32.766Z,76.50
2019-04-25T00:25:32.744Z,76.50
2019-04-25T00:26:32.719Z,76.31
2019-04-25T00:27:32.701Z,76.40
2019-04-25T00:28:32.672Z,76.50
2019-04-25T00:29:32.647Z,76.78
2019-04-25T00:30:32.630Z,77.26
2019-04-25T00:31:32.601Z,76.88
2019-04-25T00:32:32.577Z,77.26
2019-04-25T00:33:32.554Z,76.97
2019-04-25T00:34:33.703Z,77.26
2019-04-25T00:35:32.499Z,77.07
2019-04-25T00:36:32.496Z,77.26
2019-04-25T00:37:32.470Z,76.88
2019-04-25T00:38:32.425Z,77.36
2019-04-25T00:39:32.412Z,77.83
2019-04-25T00:40:32.377Z,78.11
2019-04-25T00:41:34.067Z,78.30
2019-04-25T00:42:32.334Z,78.21
2019-04-25T00:43:32.307Z,78.78
2019-04-25T00:44:32.289Z,78.40
2019-04-25T00:45:32.266Z,78.97
2019-04-25T00:46:32.298Z,78.78
2019-04-25T00:47:32.217Z,79.06
2019-04-25T00:48:32.193Z,79.06
2019-04-25T00:49:32.312Z,78.50
2019-04-25T00:50:32.148Z,79.16
2019-04-25T00:51:32.123Z,78.88
2019-04-25T00:52:32.097Z,79.92
2019-04-25T00:53:32.432Z,79.63
2019-04-25T00:54:32.048Z,80.21
2019-04-25T00:55:32.021Z,80.02
2019-04-25T00:56:32.244Z,79.60
2019-04-25T00:57:32.173Z,79.79
2019-04-25T00:58:31.953Z,79.69
2019-04-25T00:59:32.090Z,79.79
2019-04-25T01:00:32.671Z,80.16
2019-04-25T01:01:31.878Z,79.97
2019-04-25T01:02:31.855Z,80.16
2019-04-25T01:03:31.840Z,80.16
2019-04-25T01:04:33.568Z,81.02
2019-04-25T01:05:31.783Z,80.74
2019-04-25T01:06:31.945Z,80.55
2019-04-25T01:07:32.449Z,80.83
2019-04-25T01:08:32.030Z,81.12
2019-04-25T01:09:32.326Z,81.30
2019-04-25T01:10:31.675Z,81.49
2019-04-25T01:11:31.636Z,81.40
2019-04-25T01:12:31.611Z,81.59
2019-04-25T01:13:32.186Z,81.97
2019-04-25T01:14:31.971Z,82.54
2019-04-25T01:15:31.550Z,82.54
2019-04-25T01:16:31.866Z,82.50
2019-04-25T01:17:31.584Z,82.69
2019-04-25T01:18:31.506Z,82.21
2019-04-25T01:19:31.440Z,82.40
2019-04-25T01:20:31.414Z,82.50
2019-04-25T01:21:31.385Z,82.40
2019-04-25T01:22:31.367Z,82.21
2019-04-25T01:23:31.344Z,82.78
2019-04-25T01:24:31.316Z,82.45
2019-04-25T01:25:40.702Z,82.12
2019-04-25T01:26:31.270Z,82.78
2019-04-25T01:27:31.241Z,82.69
2019-04-25T01:28:31.223Z,82.88
2019-04-25T01:29:31.201Z,82.50
2019-04-25T01:30:31.171Z,82.69
2019-04-25T01:31:31.145Z,82.97
2019-04-25T01:32:31.119Z,83.07
2019-04-25T01:33:31.106Z,83.30
2019-04-25T01:34:31.072Z,83.49
2019-04-25T01:35:31.046Z,83.26
2019-04-25T01:36:31.023Z,82.31
2019-04-25T01:37:30.994Z,82.50
2019-04-25T01:38:30.972Z,82.40
2019-04-25T01:39:30.950Z,83.36
2019-04-25T01:40:30.924Z,83.16
2019-04-25T01:41:30.906Z,83.26
2019-04-25T01:42:30.868Z,83.64
2019-04-25T01:43:30.853Z,83.54
2019-04-25T01:44:30.818Z,83.83
2019-04-25T01:45:30.799Z,83.73
2019-04-25T01:46:30.777Z,83.83
2019-04-25T01:47:30.750Z,83.92
2019-04-25T01:48:30.723Z,84.01
2019-04-25T01:49:30.697Z,83.83
2019-04-25T01:50:30.677Z,83.92
2019-04-25T01:51:30.647Z,84.30
2019-04-25T01:52:30.632Z,84.40
2019-04-25T01:53:30.603Z,84.40
2019-04-25T01:54:30.585Z,84.49
2019-04-25T01:55:30.551Z,84.49
2019-04-25T01:56:30.521Z,84.30
2019-04-25T01:57:30.503Z,83.73
2019-04-25T01:58:30.477Z,83.92
2019-04-25T01:59:30.453Z,84.21
2019-04-25T02:00:30.427Z,84.49
2019-04-25T02:01:30.399Z,84.40
2019-04-25T02:02:30.377Z,84.01
2019-04-25T02:03:30.352Z,84.59
2019-04-25T02:04:30.323Z,85.02
2019-04-25T02:05:30.304Z,86.07
2019-04-25T02:06:30.274Z,84.92
2019-04-25T02:07:30.252Z,85.02
2019-04-25T02:08:30.223Z,85.11
2019-04-25T02:09:30.201Z,84.74
2019-04-25T02:10:30.173Z,85.30
2019-04-25T02:11:30.151Z,85.59
2019-04-25T02:12:30.130Z,85.21
2019-04-25T02:13:30.098Z,85.68
2019-04-25T02:14:30.079Z,86.35
2019-04-25T02:15:30.060Z,86.35
2019-04-25T02:16:30.024Z,86.44
2019-04-25T02:17:30.002Z,86.07
2019-04-25T02:18:29.975Z,86.07
2019-04-25T02:19:29.944Z,86.16
2019-04-25T02:20:29.927Z,86.63
2019-04-25T02:21:29.902Z,86.63
2019-04-25T02:22:29.878Z,86.72
2019-04-25T02:23:29.860Z,86.72
2019-04-25T02:24:29.826Z,87.30
2019-04-25T02:25:29.802Z,87.68
2019-04-25T02:26:29.775Z,87.49
2019-04-25T02:27:29.747Z,87.68
2019-04-25T02:28:29.722Z,87.77
2019-04-25T02:29:29.700Z,87.96
2019-04-25T02:30:29.684Z,87.87
2019-04-25T02:31:29.652Z,87.68
2019-04-25T02:32:29.633Z,87.49
2019-04-25T02:33:29.604Z,87.77
2019-04-25T02:34:29.578Z,87.20
2019-04-25T02:35:29.697Z,87.77
2019-04-25T02:36:29.530Z,87.58
2019-04-25T02:37:29.496Z,87.77
2019-04-25T02:38:29.474Z,87.77
2019-04-25T02:39:29.446Z,88.34
2019-04-25T02:40:29.430Z,87.49
2019-04-25T02:41:29.403Z,87.49
2019-04-25T02:42:29.399Z,87.30
2019-04-25T02:43:29.352Z,86.91
2019-04-25T02:44:29.323Z,87.01
2019-04-25T02:45:29.293Z,87.39
2019-04-25T02:46:29.278Z,87.30
2019-04-25T02:47:29.248Z,87.30
2019-04-25T02:48:29.223Z,87.20
2019-04-25T02:49:35.882Z,87.49
2019-04-25T02:50:29.170Z,88.24
2019-04-25T02:51:29.157Z,88.24
2019-04-25T02:52:29.116Z,87.96
2019-04-25T02:53:29.094Z,87.87
2019-04-25T02:54:29.066Z,87.39
2019-04-25T02:55:31.923Z,87.30
2019-04-25T02:56:34.473Z,87.30
2019-04-25T02:57:29.007Z,87.30
2019-04-25T02:58:28.966Z,87.30
2019-04-25T02:59:28.939Z,87.39
2019-04-25T03:00:45.684Z,87.87
2019-04-25T03:01:28.907Z,87.96
2019-04-25T03:02:28.870Z,87.77
2019-04-25T03:03:28.844Z,87.77
2019-04-25T03:04:28.820Z,87.87
2019-04-25T03:05:28.801Z,88.43
2019-04-25T03:06:28.926Z,87.96
2019-04-25T03:07:28.764Z,88.24
2019-04-25T03:08:28.719Z,88.72
2019-04-25T03:09:28.701Z,88.62
2019-04-25T03:10:28.667Z,88.29
2019-04-25T03:11:28.657Z,88.91
2019-04-25T03:12:33.248Z,89.20
2019-04-25T03:13:28.595Z,89.29
2019-04-25T03:14:28.582Z,89.20
2019-04-25T03:15:28.538Z,89.00
2019-04-25T03:16:28.535Z,89.00
2019-04-25T03:17:28.493Z,89.29
2019-04-25T03:18:28.462Z,88.53
2019-04-25T03:19:28.437Z,88.91
2019-04-25T03:20:28.419Z,88.62
2019-04-25T03:21:28.423Z,88.15
2019-04-25T03:22:28.362Z,88.34
2019-04-25T03:23:28.347Z,87.96
2019-04-25T03:24:28.312Z,87.49
2019-04-25T03:25:28.287Z,87.30
2019-04-25T03:26:37.880Z,87.68
2019-04-25T03:27:28.233Z,87.39
2019-04-25T03:28:28.212Z,87.49
2019-04-25T03:29:28.189Z,87.58
2019-04-25T03:30:28.178Z,87.20
2019-04-25T03:31:28.142Z,87.30
2019-04-25T03:32:28.595Z,87.58
2019-04-25T03:33:28.106Z,87.39
2019-04-25T03:34:28.063Z,88.24
2019-04-25T03:35:28.045Z,88.48
2019-04-25T03:36:28.010Z,88.58
2019-04-25T03:37:27.984Z,88.48
2019-04-25T03:38:27.985Z,88.77
2019-04-25T03:39:27.934Z,89.06
2019-04-25T03:40:27.915Z,89.81
2019-04-25T03:41:27.887Z,89.72
2019-04-25T03:42:27.869Z,89.62
2019-04-25T03:43:27.837Z,90.00
2019-04-25T03:44:27.816Z,90.19
2019-04-25T03:45:27.781Z,90.19
2019-04-25T03:46:27.758Z,90.38
2019-04-25T03:47:27.733Z,90.48
2019-04-25T03:48:27.707Z,90.57
2019-04-25T03:49:27.682Z,90.19
2019-04-25T03:50:27.655Z,90.57
2019-04-25T03:51:27.628Z,90.29
2019-04-25T03:52:27.604Z,90.29
2019-04-25T03:53:27.591Z,90.00
2019-04-25T03:54:27.553Z,90.19
2019-04-25T03:55:27.530Z,90.48
2019-04-25T03:56:27.505Z,90.38
2019-04-25T03:57:27.472Z,90.10
2019-04-25T03:58:27.453Z,89.81
2019-04-25T03:59:27.426Z,89.81
2019-04-25T04:00:27.403Z,89.72
2019-04-25T04:01:27.376Z,89.43
2019-04-25T04:02:27.351Z,89.62
2019-04-25T04:03:27.319Z,89.53
2019-04-25T04:04:27.300Z,89.62
2019-04-25T04:05:27.275Z,89.15
2019-04-25T04:06:27.250Z,89.62
2019-04-25T04:07:27.223Z,89.81
2019-04-25T04:08:27.196Z,89.43
2019-04-25T04:09:27.174Z,89.81
2019-04-25T04:10:27.149Z,89.72
2019-04-25T04:11:27.123Z,89.53
2019-04-25T04:12:27.093Z,89.81
2019-04-25T04:13:27.066Z,89.81
2019-04-25T04:14:27.045Z,89.34
2019-04-25T04:15:27.020Z,89.53
2019-04-25T04:16:27.000Z,89.81
2019-04-25T04:17:26.963Z,89.72
2019-04-25T04:18:27.113Z,90.00
2019-04-25T04:19:26.917Z,90.10
2019-04-25T04:20:26.895Z,90.29
2019-04-25T04:21:26.869Z,90.48
2019-04-25T04:22:26.842Z,90.38
2019-04-25T04:23:26.812Z,90.19
2019-04-25T04:24:26.808Z,90.86
2019-04-25T04:25:26.765Z,90.86
2019-04-25T04:26:26.739Z,90.86
2019-04-25T04:27:26.713Z,91.33
2019-04-25T04:28:26.692Z,90.67
2019-04-25T04:29:26.680Z,90.86
2019-04-25T04:30:26.638Z,91.14
2019-04-25T04:31:26.611Z,91.05
2019-04-25T04:32:26.589Z,91.05
2019-04-25T04:33:32.226Z,91.05
2019-04-25T04:34:26.533Z,90.86
2019-04-25T04:35:26.510Z,90.76
2019-04-25T04:36:26.488Z,90.95
2019-04-25T04:37:26.463Z,90.86
2019-04-25T04:38:26.440Z,90.76
2019-04-25T04:39:26.409Z,90.95
2019-04-25T04:40:26.385Z,90.86
2019-04-25T04:41:26.359Z,90.00
2019-04-25T04:42:26.330Z,91.24
2019-04-25T04:43:26.304Z,90.76
2019-04-25T04:44:26.282Z,90.95
2019-04-25T04:45:26.258Z,90.29
2019-04-25T04:46:26.235Z,90.48
2019-04-25T04:47:26.209Z,90.33
2019-04-25T04:48:26.183Z,89.76
2019-04-25T04:49:26.158Z,89.67
2019-04-25T04:50:26.135Z,89.48
2019-04-25T04:51:26.103Z,89.29
2019-04-25T04:52:26.083Z,89.29
2019-04-25T04:53:26.058Z,89.20
2019-04-25T04:54:26.030Z,89.00
2019-04-25T04:55:26.008Z,89.39
2019-04-25T04:56:26.001Z,89.95
2019-04-25T04:57:32.586Z,89.39
2019-04-25T04:58:25.936Z,88.91
2019-04-25T04:59:25.911Z,89.29
2019-04-25T05:00:25.880Z,89.29
2019-04-25T05:01:25.857Z,88.62
2019-04-25T05:02:25.830Z,88.72
2019-04-25T05:03:26.714Z,88.91
2019-04-25T05:04:25.812Z,88.91
2019-04-25T05:05:25.765Z,89.10
2019-04-25T05:06:25.732Z,88.53
2019-04-25T05:07:25.707Z,88.43
2019-04-25T05:08:25.685Z,87.96
2019-04-25T05:09:25.657Z,88.24
2019-04-25T05:10:25.635Z,88.48
2019-04-25T05:11:25.605Z,88.39
2019-04-25T05:12:25.580Z,87.91
2019-04-25T05:13:25.556Z,87.53
2019-04-25T05:14:26.665Z,87.53
2019-04-25T05:15:25.510Z,87.05
2019-04-25T05:16:25.492Z,86.96
2019-04-25T05:17:25.522Z,86.77
2019-04-25T05:18:36.528Z,86.58
2019-04-25T05:19:25.410Z,86.49
2019-04-25T05:20:34.188Z,86.01
2019-04-25T05:22:18.297Z,86.30
2019-04-25T05:23:18.871Z,86.05
2019-04-25T05:25:16.253Z,85.77
2019-04-25T05:26:15.980Z,85.86
2019-04-25T05:28:08.473Z,85.58
2019-04-25T05:29:08.448Z,85.39
2019-04-25T05:31:03.434Z,83.82
2019-04-25T05:32:04.271Z,83.25
2019-04-25T05:33:56.409Z,81.48
2019-04-25T05:34:56.360Z,81.29
2019-04-25T05:36:49.247Z,79.01
2019-04-25T05:37:49.216Z,79.20
2019-04-25T05:39:43.461Z,78.82
2019-04-25T05:40:43.745Z,78.82
2019-04-25T05:42:34.925Z,79.68
2019-04-25T05:43:34.891Z,78.72
2019-04-25T05:45:30.335Z,78.57
2019-04-25T05:46:30.286Z,77.47
2019-04-25T05:48:26.354Z,75.70
2019-04-25T05:49:26.364Z,74.69
2019-04-25T05:51:19.453Z,70.76
2019-04-25T05:52:18.524Z,68.98
2019-04-25T05:54:13.983Z,65.48
2019-04-25T05:55:14.338Z,64.65
2019-04-25T05:57:05.246Z,63.16
2019-04-25T05:58:05.219Z,62.24
2019-04-25T05:59:59.169Z,60.55
2019-04-25T06:00:59.096Z,61.02
2019-04-25T06:02:53.335Z,61.51
2019-04-25T06:03:53.535Z,61.79
2019-04-25T06:05:44.879Z,62.90
2019-04-25T06:06:44.836Z,62.81
2019-04-25T06:08:38.187Z,62.55
2019-04-25T06:09:38.165Z,61.25
2019-04-25T06:11:31.089Z,58.66
2019-04-25T06:12:31.036Z,58.28
2019-04-25T06:14:40.007Z,57.51
2019-04-25T06:15:39.953Z,57.23
2019-04-25T06:17:37.862Z,59.37
2019-04-25T06:18:37.834Z,60.16
2019-04-25T06:20:35.981Z,59.40
2019-04-25T06:21:35.906Z,58.63
2019-04-25T06:23:30.307Z,57.13
2019-04-25T06:24:30.298Z,57.23
2019-04-25T06:26:40.043Z,56.94
2019-04-25T06:27:39.213Z,57.48
2019-04-25T06:29:35.219Z,58.09
2019-04-25T06:30:35.257Z,57.51
2019-04-25T06:31:34.556Z,57.13
2019-04-25T06:32:35.503Z,56.68
2019-04-25T06:33:34.539Z,56.39
2019-04-25T06:34:36.318Z,56.20
2019-04-25T06:35:35.766Z,56.39
2019-04-25T06:36:35.366Z,56.37
2019-04-25T06:37:35.124Z,56.46
2019-04-25T06:38:34.435Z,56.94
2019-04-25T06:39:34.423Z,55.98
2019-04-25T06:40:34.595Z,55.98
2019-04-25T06:41:35.343Z,56.10
2019-04-25T06:42:34.707Z,55.44
2019-04-25T06:43:34.356Z,55.44
2019-04-25T06:44:34.545Z,55.24
2019-04-25T06:45:34.491Z,55.05
2019-04-25T06:46:34.328Z,55.98
2019-04-25T06:47:34.299Z,55.34
2019-04-25T06:48:35.168Z,55.88
2019-04-25T06:49:36.491Z,56.84
2019-04-25T06:50:35.401Z,57.51
2019-04-25T06:51:34.354Z,57.23
2019-04-25T06:52:35.420Z,56.01
2019-04-25T06:53:34.625Z,55.63
2019-04-25T06:54:35.253Z,56.10
2019-04-25T06:55:34.382Z,56.20
2019-04-25T06:56:34.508Z,56.10
2019-04-25T06:57:34.237Z,56.01
2019-04-25T06:58:34.302Z,56.49
2019-04-25T06:59:34.539Z,55.56
2019-04-25T07:00:40.800Z,55.08
2019-04-25T07:01:34.686Z,55.12
2019-04-25T07:02:35.178Z,55.73
2019-04-25T07:03:35.615Z,55.44
2019-04-25T07:04:34.855Z,55.56
2019-04-25T07:05:40.157Z,54.03
2019-04-25T07:06:34.718Z,53.58
2019-04-25T07:07:35.135Z,51.65
2019-04-25T07:08:35.325Z,52.04
2019-04-25T07:09:34.950Z,52.42
2019-04-25T07:10:34.880Z,52.52
2019-04-25T07:11:34.855Z,51.78
2019-04-25T07:12:34.847Z,50.65
2019-04-25T07:13:37.241Z,49.82
2019-04-25T07:14:36.806Z,48.30
2019-04-25T07:15:35.181Z,46.89
2019-04-25T07:16:34.693Z,46.53
2019-04-25T07:17:34.972Z,44.14
2019-04-25T07:18:36.337Z,43.84
2019-04-25T07:19:34.376Z,43.76
2019-04-25T07:20:34.579Z,44.24
2019-04-25T07:21:34.671Z,42.72
2019-04-25T07:22:35.032Z,41.59
2019-04-25T07:23:34.630Z,40.64
2019-04-25T07:24:35.241Z,41.55
2019-04-25T07:25:35.328Z,43.62
2019-04-25T07:26:37.096Z,45.14
2019-04-25T07:27:48.512Z,46.55
2019-04-25T07:29:36.720Z,48.38
2019-04-25T07:30:48.617Z,47.92
2019-04-25T07:32:37.082Z,46.67
2019-04-25T07:33:37.021Z,46.36
2019-04-25T07:35:40.010Z,47.71
2019-04-25T07:36:39.913Z,47.72
2019-04-25T07:38:35.023Z,45.81
2019-04-25T07:39:35.291Z,46.34
2019-04-25T07:40:34.966Z,47.68
2019-04-25T07:41:36.820Z,48.64
2019-04-25T07:42:35.194Z,48.38
2019-04-25T07:43:35.421Z,46.98
2019-04-25T07:44:48.911Z,44.70
2019-04-25T07:45:35.062Z,43.74
2019-04-25T07:46:38.197Z,43.84
2019-04-25T07:47:35.059Z,42.89
2019-04-25T07:48:36.748Z,42.50
2019-04-25T07:49:34.827Z,41.95
2019-04-25T07:50:35.358Z,42.28
2019-04-25T07:51:35.252Z,40.81
2019-04-25T07:52:34.840Z,40.19
2019-04-25T07:53:35.142Z,38.83
2019-04-25T07:54:35.402Z,38.56
2019-04-25T07:55:36.323Z,38.08
2019-04-25T07:56:35.193Z,38.76
2019-04-25T07:57:34.940Z,39.79
2019-04-25T07:58:45.354Z,40.11
2019-04-25T07:59:35.352Z,38.28
2019-04-25T08:00:35.251Z,37.91
2019-04-25T08:01:36.626Z,36.94
2019-04-25T08:02:35.006Z,37.23
2019-04-25T08:03:34.442Z,37.79
2019-04-25T08:04:35.735Z,37.79
2019-04-25T08:05:35.366Z,37.02
2019-04-25T08:06:34.565Z,37.70
2019-04-25T08:07:35.289Z,37.41
2019-04-25T08:08:34.939Z,37.52
2019-04-25T08:09:35.221Z,40.08
2019-04-25T08:10:34.684Z,41.72
2019-04-25T08:11:35.051Z,41.83
2019-04-25T08:12:34.683Z,41.45
2019-04-25T08:13:34.877Z,40.41
2019-04-25T08:14:34.918Z,40.24
2019-04-25T08:15:34.965Z,39.87
2019-04-25T08:16:34.805Z,39.28
2019-04-25T08:17:35.819Z,39.56
2019-04-25T08:18:35.089Z,41.05
2019-04-25T08:19:34.688Z,41.64
2019-04-25T08:20:34.713Z,41.28
2019-04-25T08:21:34.493Z,39.74
2019-04-25T08:22:42.915Z,39.09
2019-04-25T08:23:36.699Z,39.06
2019-04-25T08:24:34.877Z,38.89
2019-04-25T08:25:36.625Z,38.53
2019-04-25T08:26:35.002Z,37.96
2019-04-25T08:27:34.762Z,37.58
2019-04-25T08:28:34.549Z,37.10
2019-04-25T08:29:36.370Z,37.27
2019-04-25T08:30:35.321Z,37.83
2019-04-25T08:31:34.894Z,38.10
2019-04-25T08:32:35.532Z,38.79
2019-04-25T08:33:34.535Z,37.16
2019-04-25T08:34:34.804Z,38.95
2019-04-25T08:35:34.271Z,39.79
2019-04-25T08:36:36.679Z,40.01
2019-04-25T08:37:34.473Z,38.95
2019-04-25T08:38:34.755Z,38.76
2019-04-25T08:39:36.951Z,39.89
2019-04-25T08:40:35.757Z,39.51
2019-04-25T08:41:34.816Z,40.01
2019-04-25T08:42:35.430Z,39.91
2019-04-25T08:43:36.333Z,39.04
2019-04-25T08:44:34.785Z,38.93
2019-04-25T08:45:35.391Z,39.41
2019-04-25T08:46:35.850Z,39.99
2019-04-25T08:47:35.781Z,39.61
2019-04-25T08:48:34.525Z,39.51
2019-04-25T08:49:34.906Z,39.81
2019-04-25T08:50:37.199Z,39.72
2019-04-25T08:51:34.880Z,39.83
2019-04-25T08:52:35.148Z,38.95
2019-04-25T08:53:35.158Z,38.59
2019-04-25T08:54:35.393Z,37.64
2019-04-25T08:55:34.910Z,38.22
2019-04-25T08:56:35.105Z,37.64
2019-04-25T08:57:34.764Z,37.95
2019-04-25T08:58:35.294Z,37.66
2019-04-25T08:59:40.113Z,37.35
2019-04-25T09:00:35.704Z,37.45
2019-04-25T09:01:36.515Z,36.97
2019-04-25T09:02:35.884Z,37.74
2019-04-25T09:03:35.264Z,37.83
2019-04-25T09:04:35.662Z,37.43
2019-04-25T09:05:35.823Z,38.28
2019-04-25T09:06:36.063Z,38.85
2019-04-25T09:07:35.421Z,39.33
2019-04-25T09:08:36.006Z,38.97
2019-04-25T09:09:35.375Z,38.41
2019-04-25T09:10:36.842Z,37.52
2019-04-25T09:11:34.854Z,38.29
2019-04-25T09:12:35.586Z,37.72
2019-04-25T09:13:35.859Z,37.54
2019-04-25T09:14:35.215Z,37.66
2019-04-25T09:15:35.648Z,37.64
2019-04-25T09:16:35.366Z,38.59
2019-04-25T09:17:35.858Z,38.59
2019-04-25T09:18:35.707Z,38.99
2019-04-25T09:19:35.877Z,38.79
2019-04-25T09:20:38.043Z,38.91
2019-04-25T09:21:35.275Z,37.64
2019-04-25T09:22:35.280Z,38.91
2019-04-25T09:23:34.607Z,37.68
2019-04-25T09:24:36.284Z,37.39
2019-04-25T09:25:34.605Z,38.79
2019-04-25T09:26:34.901Z,39.01
2019-04-25T09:27:34.372Z,38.22
2019-04-25T09:28:34.735Z,38.79
2019-04-25T09:29:34.371Z,40.03
2019-04-25T09:30:34.950Z,39.26
2019-04-25T09:31:34.582Z,39.91
2019-04-25T09:32:33.842Z,39.62
2019-04-25T09:33:35.122Z,40.49
2019-04-25T09:34:33.614Z,40.31
2019-04-25T09:35:33.618Z,39.95
2019-04-25T09:36:33.623Z,39.29
2019-04-25T09:37:33.621Z,38.53
2019-04-25T09:38:34.770Z,38.81
2019-04-25T09:39:33.807Z,38.81
2019-04-25T09:40:34.170Z,38.33
2019-04-25T09:41:33.611Z,37.58
2019-04-25T09:42:33.827Z,37.39
2019-04-25T09:43:33.537Z,37.68
2019-04-25T09:44:33.103Z,37.60
2019-04-25T09:45:33.558Z,36.85
2019-04-25T09:46:34.157Z,36.63
2019-04-25T09:47:33.509Z,36.83
2019-04-25T09:48:35.361Z,36.25
2019-04-25T09:49:34.992Z,35.58
2019-04-25T09:50:34.004Z,35.48
2019-04-25T09:51:33.596Z,35.19
2019-04-25T09:52:34.029Z,35.21
2019-04-25T09:53:34.839Z,35.50
2019-04-25T09:54:33.461Z,36.00
2019-04-25T09:55:34.055Z,35.98
2019-04-25T09:56:33.964Z,36.54
2019-04-25T09:57:33.567Z,36.15
2019-04-25T09:58:33.829Z,35.86
2019-04-25T09:59:33.223Z,35.02
2019-04-25T10:00:33.398Z,35.11
2019-04-25T10:01:33.898Z,35.21
2019-04-25T10:02:32.956Z,35.52
2019-04-25T10:03:33.366Z,34.66
2019-04-25T10:04:34.555Z,34.28
2019-04-25T10:05:33.945Z,33.50
2019-04-25T10:06:33.350Z,33.40
2019-04-25T10:07:32.942Z,33.60
2019-04-25T10:08:34.297Z,33.81
2019-04-25T10:09:33.750Z,33.40
2019-04-25T10:10:32.896Z,34.56
2019-04-25T10:11:33.513Z,34.10
2019-04-25T10:12:34.184Z,33.60
2019-04-25T10:13:33.736Z,34.74
2019-04-25T10:14:32.874Z,34.64
2019-04-25T10:15:33.916Z,33.68
2019-04-25T10:16:33.498Z,34.94
2019-04-25T10:17:33.775Z,35.14
2019-04-25T10:18:33.481Z,35.06
2019-04-25T10:19:34.345Z,33.33
2019-04-25T10:20:33.368Z,33.80
2019-04-25T10:21:34.262Z,33.73
2019-04-25T10:22:33.914Z,32.76
2019-04-25T10:23:34.236Z,32.86
2019-04-25T10:24:32.790Z,33.14
2019-04-25T10:25:33.438Z,32.82
2019-04-25T10:26:34.781Z,33.31
2019-04-25T10:27:32.776Z,33.02
2019-04-25T10:28:33.574Z,32.75
2019-04-25T10:29:41.661Z,32.36
2019-04-25T10:30:34.209Z,32.18
2019-04-25T10:31:33.899Z,31.57
2019-04-25T10:32:33.536Z,32.36
2019-04-25T10:33:32.721Z,32.17
2019-04-25T10:34:33.336Z,32.46
2019-04-25T10:35:40.864Z,31.98
2019-04-25T10:36:33.612Z,32.06
2019-04-25T10:37:33.650Z,32.57
2019-04-25T10:38:33.615Z,31.44
2019-04-25T10:39:34.031Z,30.07
2019-04-25T10:40:33.813Z,30.28
2019-04-25T10:41:33.704Z,30.83
2019-04-25T10:42:34.235Z,31.23
2019-04-25T10:43:34.175Z,30.66
2019-04-25T10:44:33.889Z,30.18
2019-04-25T10:45:34.049Z,29.39
2019-04-25T10:46:33.981Z,29.49
2019-04-25T10:47:33.455Z,29.61
2019-04-25T10:48:34.258Z,29.43
2019-04-25T10:49:34.366Z,29.60
2019-04-25T10:50:34.098Z,30.57
2019-04-25T10:51:34.163Z,30.58
2019-04-25T10:52:33.786Z,29.71
2019-04-25T10:53:33.852Z,29.71
2019-04-25T10:54:33.776Z,29.91
2019-04-25T10:55:32.577Z,29.53
2019-04-25T10:56:33.517Z,28.76
2019-04-25T10:57:33.989Z,28.75
2019-04-25T10:58:33.495Z,29.52
2019-04-25T10:59:32.555Z,28.85
2019-04-25T11:00:33.882Z,29.03
2019-04-25T11:01:33.904Z,28.94
2019-04-25T11:02:33.909Z,30.07
2019-04-25T11:03:33.690Z,30.75
2019-04-25T11:04:32.516Z,30.36
2019-04-25T11:05:34.193Z,31.23
2019-04-25T11:06:33.634Z,29.99
2019-04-25T11:07:33.921Z,29.60
2019-04-25T11:08:34.014Z,30.25
2019-04-25T11:09:34.053Z,30.36
2019-04-25T11:10:34.298Z,30.08
2019-04-25T11:11:34.073Z,30.08
2019-04-25T11:12:33.816Z,29.60
2019-04-25T11:13:33.902Z,29.33
2019-04-25T11:14:34.014Z,28.56
2019-04-25T11:15:33.906Z,28.19
2019-04-25T11:16:33.302Z,28.08
2019-04-25T11:17:33.902Z,27.98
2019-04-25T11:18:33.928Z,28.76
2019-04-25T11:19:33.858Z,28.64
2019-04-25T11:20:33.842Z,28.72
2019-04-25T11:21:33.323Z,29.96
2019-04-25T11:22:34.117Z,29.39
2019-04-25T11:23:32.408Z,29.02
2019-04-25T11:24:32.383Z,28.54
2019-04-25T11:25:34.060Z,28.85
2019-04-25T11:26:34.526Z,29.41
2019-04-25T11:27:33.973Z,29.41
2019-04-25T11:28:33.790Z,28.85
2019-04-25T11:29:33.972Z,28.87
2019-04-25T11:30:32.368Z,28.20
2019-04-25T11:31:33.737Z,27.11
2019-04-25T11:32:33.940Z,27.98
2019-04-25T11:33:33.490Z,28.08
2019-04-25T11:34:32.322Z,29.36
2019-04-25T11:35:42.048Z,27.83
2019-04-25T11:37:26.729Z,27.53
2019-04-25T11:38:26.698Z,26.67
2019-04-25T11:39:26.692Z,26.59
2019-04-25T11:40:26.689Z,25.70
2019-04-25T11:41:26.683Z,25.89
2019-04-25T11:42:26.676Z,25.52
2019-04-25T11:43:26.663Z,26.48
2019-04-25T11:44:26.658Z,25.99
2019-04-25T11:45:26.654Z,26.57
2019-04-25T11:46:26.643Z,25.40
2019-04-25T11:47:26.641Z,26.27
2019-04-25T11:48:26.637Z,26.48
2019-04-25T11:49:26.625Z,25.79
2019-04-25T11:50:26.624Z,24.92
2019-04-25T11:51:26.618Z,25.10
2019-04-25T11:52:28.178Z,25.38
2019-04-25T11:53:26.606Z,25.27
2019-04-25T11:54:26.595Z,26.05
2019-04-25T11:55:26.591Z,26.75
2019-04-25T11:56:26.591Z,25.30
2019-04-25T11:57:26.585Z,25.21
2019-04-25T11:58:26.576Z,25.23
2019-04-25T11:59:26.571Z,24.54
2019-04-25T12:00:26.561Z,24.65
2019-04-25T12:01:26.556Z,24.07
2019-04-25T12:02:26.545Z,23.59
2019-04-25T12:03:26.564Z,24.45
2019-04-25T12:04:26.533Z,24.26
2019-04-25T12:05:26.549Z,24.92
2019-04-25T12:06:26.525Z,24.82
2019-04-25T12:07:26.512Z,24.93
2019-04-25T12:08:26.511Z,23.28
2019-04-25T12:09:26.519Z,23.57
2019-04-25T12:10:26.515Z,24.16
2019-04-25T12:11:26.494Z,24.16
2019-04-25T12:12:26.494Z,23.75
2019-04-25T12:13:26.482Z,24.62
2019-04-25T12:14:26.475Z,24.82
2019-04-25T12:15:26.479Z,24.15
2019-04-25T12:16:26.464Z,23.47
2019-04-25T12:17:26.460Z,23.65
2019-04-25T12:18:26.450Z,24.13
2019-04-25T12:19:34.490Z,24.04
2019-04-25T12:20:26.446Z,24.04
2019-04-25T12:21:26.445Z,24.13
2019-04-25T12:22:26.426Z,23.57
2019-04-25T12:23:26.421Z,24.04
2019-04-25T12:24:26.414Z,25.12
2019-04-25T12:25:26.409Z,24.24
2019-04-25T12:26:26.440Z,24.84
2019-04-25T12:27:26.391Z,23.87
2019-04-25T12:28:26.391Z,23.39
2019-04-25T12:29:26.393Z,22.92
2019-04-25T12:30:37.340Z,23.31
2019-04-25T12:31:26.373Z,22.44
2019-04-25T12:32:26.361Z,21.94
2019-04-25T12:33:26.364Z,21.94
2019-04-25T12:34:26.344Z,22.11
2019-04-25T12:35:26.341Z,21.93
2019-04-25T12:36:26.340Z,21.84
2019-04-25T12:37:26.329Z,21.47
2019-04-25T12:38:26.324Z,20.98
2019-04-25T12:39:26.323Z,20.10
2019-04-25T12:40:26.307Z,20.18
2019-04-25T12:41:26.306Z,20.46
2019-04-25T12:42:26.297Z,21.05
2019-04-25T12:43:26.293Z,20.47
2019-04-25T12:44:26.282Z,20.68
2019-04-25T12:45:26.279Z,20.40
2019-04-25T12:46:26.276Z,20.60
2019-04-25T12:47:26.270Z,19.35
2019-04-25T12:48:26.255Z,19.13
2019-04-25T12:49:26.254Z,19.71
2019-04-25T12:50:26.248Z,19.13
2019-04-25T12:51:26.243Z,18.84
2019-04-25T12:52:26.242Z,19.49
2019-04-25T12:53:26.227Z,20.37
2019-04-25T12:54:26.219Z,19.60
2019-04-25T12:55:26.220Z,19.80
2019-04-25T12:56:26.204Z,19.42
2019-04-25T12:57:26.203Z,18.94
2019-04-25T12:58:26.198Z,19.14
2019-04-25T12:59:26.187Z,19.04
2019-04-25T13:00:26.179Z,18.93
2019-04-25T13:01:26.169Z,18.83
2019-04-25T13:02:26.172Z,19.02
2019-04-25T13:03:26.158Z,19.40
2019-04-25T13:04:26.150Z,18.73
2019-04-25T13:05:26.158Z,18.65
2019-04-25T13:06:26.139Z,18.66
2019-04-25T13:07:26.169Z,17.80
2019-04-25T13:08:26.148Z,17.50
2019-04-25T13:09:26.116Z,17.79
2019-04-25T13:10:26.109Z,17.50
2019-04-25T13:11:26.104Z,17.29
2019-04-25T13:12:26.098Z,17.66
2019-04-25T13:13:26.106Z,18.64
2019-04-25T13:14:26.079Z,18.17
2019-04-25T13:15:27.020Z,17.89
2019-04-25T13:16:26.073Z,17.40
2019-04-25T13:17:26.062Z,17.68
2019-04-25T13:18:26.069Z,17.78
2019-04-25T13:19:26.572Z,18.54